Time;durP1;ratioP1;P1;durP2;ratioP2;P2;SDS_P1;SDS_P2;PMS_P1;PMS_P2;Temp;Humidity;BMP_temperature;BMP_pressure;BME280_temperature;BME280_humidity;BME280_pressure;Samples;Min_cycle;Max_cycle;Signal;HPM_P1;HPM_P2
2023/12/16 00:01:08;;;;;;;9.52;3.88;;;;;;;5.50;100.00;101486.53;5049861;28;20021;-67
2023/12/16 00:03:34;;;;;;;1.00;1.00;;;;;;;5.53;100.00;101486.63;5067910;28;20473;-67
2023/12/16 00:06:00;;;;;;;22.90;1.75;;;;;;;5.52;100.00;101480.63;5067981;28;20044;-68
2023/12/16 00:08:25;;;;;;;7.85;1.73;;;;;;;5.48;100.00;101483.06;5067923;28;20028;-67
2023/12/16 00:10:50;;;;;;;5.35;1.92;;;;;;;5.54;100.00;101483.22;5067584;28;20047;-67
2023/12/16 00:13:16;;;;;;;0.75;0.68;;;;;;;5.51;100.00;101472.84;5067702;28;20032;-68
2023/12/16 00:15:41;;;;;;;3.10;0.98;;;;;;;5.48;100.00;101470.19;5067371;28;20128;-67
2023/12/16 00:18:07;;;;;;;1.23;1.17;;;;;;;5.48;100.00;101471.03;5067671;28;20074;-67
2023/12/16 00:20:32;;;;;;;4.43;2.63;;;;;;;5.54;100.00;101480.66;5049542;28;20092;-67
2023/12/16 00:22:58;;;;;;;13.13;2.65;;;;;;;5.51;100.00;101470.25;5067495;28;20029;-67
2023/12/16 00:25:23;;;;;;;1.50;1.40;;;;;;;5.49;100.00;101469.34;5067724;28;20017;-67
2023/12/16 00:27:48;;;;;;;5.13;2.25;;;;;;;5.48;100.00;101459.88;5067385;28;20036;-67
2023/12/16 00:30:14;;;;;;;4.38;2.33;;;;;;;5.48;100.00;101459.88;5067295;28;20025;-67
2023/12/16 00:32:40;;;;;;;5.45;3.45;;;;;;;5.48;100.00;101465.88;5067667;28;20029;-68
2023/12/16 00:35:07;;;;;;;12.98;4.28;;;;;;;5.44;100.00;101467.50;5067445;28;20082;-67
2023/12/16 00:37:33;;;;;;;22.15;2.95;;;;;;;5.44;100.00;101477.81;5067175;28;20029;-67
2023/12/16 00:39:58;;;;;;;7.85;2.20;;;;;;;5.38;100.00;101466.44;5067726;28;20025;-68
2023/12/16 00:42:24;;;;;;;11.65;2.55;;;;;;;5.38;100.00;101459.59;5067294;28;20021;-69
2023/12/16 00:44:49;;;;;;;8.25;2.63;;;;;;;5.41;100.00;101464.84;5067171;28;20017;-68
2023/12/16 00:47:14;;;;;;;3.90;1.27;;;;;;;5.46;100.00;101473.56;5049362;28;20047;-68
2023/12/16 00:49:40;;;;;;;6.82;2.50;;;;;;;5.48;100.00;101483.06;5067084;28;20048;-68
2023/12/16 00:52:05;;;;;;;10.48;2.72;;;;;;;5.50;100.00;101483.94;5067435;28;20021;-68
2023/12/16 00:54:30;;;;;;;2.00;1.48;;;;;;;5.52;100.00;101480.63;5047879;28;20056;-68
2023/12/16 00:56:56;;;;;;;1.50;1.40;;;;;;;5.52;100.00;101490.03;5066906;28;20051;-67
2023/12/16 00:59:22;;;;;;;2.53;1.35;;;;;;;5.52;100.00;101479.72;5048998;28;20025;-69
2023/12/16 01:01:48;;;;;;;3.80;2.53;;;;;;;5.50;100.00;101478.81;5048764;28;20029;-68
2023/12/16 01:04:13;;;;;;;25.73;2.03;;;;;;;5.53;100.00;101481.47;5066901;28;20073;-68
2023/12/16 01:06:39;;;;;;;15.90;2.63;;;;;;;5.55;100.00;101483.28;5066935;28;20020;-68
2023/12/16 01:09:04;;;;;;;6.20;2.58;;;;;;;5.57;100.00;101494.47;5066725;28;20101;-68
2023/12/16 01:11:29;;;;;;;8.30;3.92;;;;;;;5.54;100.00;101486.66;5066673;28;20060;-67
2023/12/16 01:13:55;;;;;;;7.63;2.55;;;;;;;5.54;100.00;101490.97;5066464;28;20487;-67
2023/12/16 01:16:21;;;;;;;21.75;3.03;;;;;;;5.47;100.00;101489.91;5066371;28;20040;-68
2023/12/16 01:18:46;;;;;;;13.95;2.60;;;;;;;5.38;99.88;101493.09;5066733;28;20089;-67
2023/12/16 01:21:12;;;;;;;7.43;4.18;;;;;;;5.37;99.89;101486.16;5048513;28;20025;-67
2023/12/16 01:23:37;;;;;;;4.40;2.90;;;;;;;5.31;100.00;101484.28;5066295;28;20025;-68
2023/12/16 01:26:03;;;;;;;7.05;3.75;;;;;;;5.31;100.00;101488.56;5048580;28;20039;-67
2023/12/16 01:28:29;;;;;;;6.85;1.25;;;;;;;5.32;100.00;101490.28;5066027;28;20021;-68
2023/12/16 01:30:54;;;;;;;3.92;1.55;;;;;;;5.27;100.00;101477.28;5066285;28;20039;-67
2023/12/16 01:33:20;;;;;;;2.13;1.73;;;;;;;5.26;100.00;101484.94;5048433;28;20108;-68
2023/12/16 01:35:45;;;;;;;4.40;2.13;;;;;;;5.27;100.00;101497.03;5066041;28;20029;-67
2023/12/16 01:38:11;;;;;;;3.92;2.08;;;;;;;5.29;100.00;101491.09;5066239;28;20047;-68
2023/12/16 01:40:37;;;;;;;11.57;2.15;;;;;;;5.29;100.00;101487.63;5066182;28;20035;-68
2023/12/16 01:43:06;;;;;;;1.15;1.05;;;;;;;5.24;100.00;101491.78;5065965;28;20048;-68
2023/12/16 01:45:32;;;;;;;7.55;1.98;;;;;;;5.13;100.00;101482.00;5066244;28;20027;-66
2023/12/16 01:47:59;;;;;;;9.75;1.60;;;;;;;5.16;100.00;101494.97;5047998;28;20084;-67
2023/12/16 01:50:26;;;;;;;8.65;1.30;;;;;;;5.15;100.00;101506.09;5048406;28;20525;-67
2023/12/16 01:52:53;;;;;;;4.07;2.55;;;;;;;5.15;100.00;101488.09;5066015;28;20049;-66
2023/12/16 01:55:19;;;;;;;20.95;2.92;;;;;;;5.12;100.00;101485.41;5065862;28;20086;-66
2023/12/16 01:57:45;;;;;;;17.75;1.80;;;;;;;5.20;100.00;101496.84;5065588;28;20462;-67
2023/12/16 02:00:11;;;;;;;3.90;2.88;;;;;;;5.27;100.00;101484.16;5065761;28;20028;-68
2023/12/16 02:02:38;;;;;;;12.70;3.20;;;;;;;5.24;100.00;101486.63;5065639;28;20025;-68
2023/12/16 02:05:03;;;;;;;8.45;2.72;;;;;;;5.30;100.00;101484.25;5047417;28;20108;-66
2023/12/16 02:07:29;;;;;;;2.03;1.40;;;;;;;5.28;100.00;101470.44;5047725;28;20029;-67
2023/12/16 02:09:55;;;;;;;6.60;3.10;;;;;;;5.25;99.98;101458.34;5065565;28;20465;-67
2023/12/16 02:12:21;;;;;;;2.00;1.48;;;;;;;5.25;100.00;101454.91;5065465;28;20021;-67
2023/12/16 02:14:46;;;;;;;10.27;2.65;;;;;;;5.20;100.00;101455.63;5064973;28;20090;-68
2023/12/16 02:17:11;;;;;;;6.97;2.55;;;;;;;5.16;99.79;101451.19;5065671;28;20037;-67
2023/12/16 02:19:38;;;;;;;1.48;1.42;;;;;;;5.10;100.00;101448.44;5064347;28;20056;-68
2023/12/16 02:22:03;;;;;;;8.48;1.25;;;;;;;5.15;99.80;101461.44;5065340;28;20025;-66
2023/12/16 02:24:31;;;;;;;14.52;3.33;;;;;;;5.04;99.82;101458.53;5065162;28;20017;-67
2023/12/16 02:26:57;;;;;;;1.65;1.55;;;;;;;5.07;99.66;101466.38;5066033;28;20029;-67
2023/12/16 02:29:22;;;;;;;7.22;2.78;;;;;;;5.04;99.56;101459.44;5047287;28;20032;-68
2023/12/16 02:31:48;;;;;;;0.40;0.40;;;;;;;4.93;99.54;101440.19;5064948;28;20499;-68
2023/12/16 02:34:13;;;;;;;3.75;0.95;;;;;;;5.00;99.80;101454.13;5065140;28;20075;-67
2023/12/16 02:36:38;;;;;;;5.72;1.77;;;;;;;4.96;99.83;101446.31;5065062;28;20092;-68
2023/12/16 02:39:04;;;;;;;6.05;1.50;;;;;;;4.99;99.87;101460.97;5047156;28;20024;-67
2023/12/16 02:41:29;;;;;;;11.23;1.67;;;;;;;5.01;99.94;101454.19;5047336;28;20031;-68
2023/12/16 02:43:54;;;;;;;14.43;3.35;;;;;;;4.99;100.00;101431.78;5064816;28;20039;-68
2023/12/16 02:46:20;;;;;;;1.83;1.45;;;;;;;5.05;100.00;101431.97;5065028;28;20032;-67
2023/12/16 02:48:45;;;;;;;1.60;1.50;;;;;;;5.03;100.00;101431.91;5064901;28;20028;-68
2023/12/16 02:51:20;;;;;;;9.52;1.67;;;;;;;5.02;100.00;101426.72;5064182;28;20028;-67
2023/12/16 02:53:46;;;;;;;5.32;2.35;;;;;;;5.05;100.00;101443.16;5047251;28;20058;-67
2023/12/16 02:56:12;;;;;;;8.57;3.80;;;;;;;5.07;100.00;101450.91;5064799;28;20048;-67
2023/12/16 02:58:37;;;;;;;3.83;1.52;;;;;;;5.01;100.00;101432.72;5064641;28;20024;-67
2023/12/16 03:01:03;;;;;;;1.85;1.60;;;;;;;5.01;100.00;101437.84;5063703;28;20021;-68
2023/12/16 03:03:28;;;;;;;4.68;2.38;;;;;;;5.00;99.93;101443.84;5064852;28;20370;-67
2023/12/16 03:05:53;;;;;;;1.80;1.70;;;;;;;4.94;100.00;101444.50;5064703;28;20021;-69
2023/12/16 03:08:19;;;;;;;11.27;1.05;;;;;;;4.96;99.99;101441.19;5064742;28;20049;-69
2023/12/16 03:10:44;;;;;;;0.70;0.70;;;;;;;4.92;99.83;101447.03;5064587;28;20029;-69
2023/12/16 03:13:10;;;;;;;1.30;0.60;;;;;;;4.83;99.97;101428.72;5064448;28;20025;-68
2023/12/16 03:15:35;;;;;;;2.28;1.48;;;;;;;4.84;100.00;101433.03;5064307;28;20051;-68
2023/12/16 03:18:00;;;;;;;2.03;1.45;;;;;;;4.79;99.75;101424.31;5067153;28;20025;-68
2023/12/16 03:20:26;;;;;;;0.50;0.50;;;;;;;4.73;99.67;101422.41;5068699;28;20032;-69
2023/12/16 03:22:52;;;;;;;1.33;1.25;;;;;;;4.69;99.80;101418.00;5068808;28;20062;-69
2023/12/16 03:25:18;;;;;;;14.90;1.73;;;;;;;4.65;99.77;101405.88;5050637;28;20021;-67
2023/12/16 03:27:43;;;;;;;1.45;1.10;;;;;;;4.57;99.85;101391.06;5068801;28;20036;-69
2023/12/16 03:30:09;;;;;;;6.70;2.30;;;;;;;4.60;99.87;101405.69;5050123;28;20028;-69
2023/12/16 03:32:35;;;;;;;3.55;2.50;;;;;;;4.61;99.89;101425.47;5068343;28;20025;-68
2023/12/16 03:35:00;;;;;;;1.92;1.52;;;;;;;4.57;100.00;101421.91;5068535;28;20046;-70
2023/12/16 03:37:26;;;;;;;10.80;3.10;;;;;;;4.62;100.00;101431.50;5068354;28;20029;-69
2023/12/16 03:39:51;;;;;;;4.88;2.30;;;;;;;4.59;100.00;101420.28;5068513;28;20028;-69
2023/12/16 03:42:17;;;;;;;3.42;1.73;;;;;;;4.54;100.00;101403.81;5068352;28;20410;-69
2023/12/16 03:44:46;;;;;;;15.05;3.75;;;;;;;4.60;100.00;101392.84;5068082;28;20100;-69
2023/12/16 03:47:12;;;;;;;6.90;2.28;;;;;;;4.61;100.00;101397.19;5068581;28;20477;-69
2023/12/16 03:49:37;;;;;;;3.70;1.85;;;;;;;4.59;100.00;101393.69;5068318;28;20032;-69
2023/12/16 03:52:03;;;;;;;2.40;2.25;;;;;;;4.61;100.00;101391.16;5068104;28;20108;-69
2023/12/16 03:54:28;;;;;;;3.33;1.20;;;;;;;4.58;100.00;101382.50;5050229;28;20025;-69
2023/12/16 03:56:54;;;;;;;0.73;0.65;;;;;;;4.55;100.00;101384.97;5068083;28;20060;-68
2023/12/16 03:59:19;;;;;;;0.43;0.43;;;;;;;4.56;100.00;101380.72;5049811;28;20074;-68
2023/12/16 04:01:45;;;;;;;2.38;0.88;;;;;;;4.59;100.00;101371.41;5067871;28;20032;-69
2023/12/16 04:04:10;;;;;;;0.57;0.57;;;;;;;4.60;100.00;101364.53;5049916;28;20013;-67
2023/12/16 04:06:36;;;;;;;1.85;1.73;;;;;;;4.61;100.00;101368.88;5049931;28;20163;-67
2023/12/16 04:09:01;;;;;;;0.85;0.85;;;;;;;4.63;100.00;101366.38;5049780;28;20466;-68
2023/12/16 04:11:26;;;;;;;0.65;0.65;;;;;;;4.60;100.00;101361.97;5067614;28;20080;-66
2023/12/16 04:13:52;;;;;;;2.05;1.38;;;;;;;4.62;100.00;101370.63;5067554;28;20116;-67
2023/12/16 04:16:19;;;;;;;1.95;1.02;;;;;;;4.61;100.00;101363.75;5067450;28;20041;-67
2023/12/16 04:18:44;;;;;;;2.10;1.90;;;;;;;4.56;100.00;101355.88;5067586;28;20534;-68
2023/12/16 04:21:10;;;;;;;6.10;1.25;;;;;;;4.63;100.00;101351.81;5067366;28;20052;-67
2023/12/16 04:23:35;;;;;;;1.30;1.25;;;;;;;4.64;100.00;101352.66;5067652;28;20045;-66
2023/12/16 04:26:01;;;;;;;3.53;2.25;;;;;;;4.68;100.00;101347.66;5067467;28;20028;-67
2023/12/16 04:28:26;;;;;;;2.63;2.42;;;;;;;4.73;100.00;101352.94;5067251;28;20052;-68
2023/12/16 04:30:51;;;;;;;8.82;1.60;;;;;;;4.75;100.00;101350.44;5067360;28;20028;-67
2023/12/16 04:33:17;;;;;;;8.13;1.75;;;;;;;4.76;100.00;101336.75;5067374;28;20027;-67
2023/12/16 04:35:42;;;;;;;3.80;1.52;;;;;;;4.80;100.00;101341.16;5067403;28;20382;-68
2023/12/16 04:38:07;;;;;;;3.08;2.30;;;;;;;4.76;100.00;101324.75;5067307;28;20025;-66
2023/12/16 04:40:33;;;;;;;0.60;0.60;;;;;;;4.83;100.00;101318.97;5049215;28;20053;-66
2023/12/16 04:42:58;;;;;;;14.10;1.80;;;;;;;4.87;100.00;101307.09;5049336;28;20040;-67
2023/12/16 04:45:24;;;;;;;0.63;0.63;;;;;;;4.85;100.00;101303.59;5048939;28;20028;-66
2023/12/16 04:47:49;;;;;;;0.98;0.98;;;;;;;4.86;100.00;101310.47;5067430;28;20103;-67
2023/12/16 04:50:16;;;;;;;0.50;0.50;;;;;;;4.93;100.00;101319.25;5066890;28;20428;-66
2023/12/16 04:52:41;;;;;;;5.10;1.85;;;;;;;4.93;100.00;101321.81;5049125;28;20405;-66
2023/12/16 04:55:07;;;;;;;0.93;0.85;;;;;;;4.93;100.00;101324.41;5067083;28;20020;-68
2023/12/16 04:57:33;;;;;;;6.85;1.50;;;;;;;4.95;100.00;101323.59;5066823;28;20496;-67
2023/12/16 04:59:58;;;;;;;1.70;1.50;;;;;;;4.94;100.00;101315.84;5048844;28;20057;-67
2023/12/16 05:02:24;;;;;;;2.45;1.83;;;;;;;4.91;100.00;101326.03;5066783;28;20028;-68
2023/12/16 05:04:49;;;;;;;0.57;0.57;;;;;;;4.84;100.00;101319.81;5066594;28;20037;-67
2023/12/16 05:07:14;;;;;;;3.22;2.05;;;;;;;4.82;100.00;101318.94;5066564;28;20047;-67
2023/12/16 05:09:40;;;;;;;1.02;0.88;;;;;;;4.84;100.00;101318.13;5066636;28;20021;-67
2023/12/16 05:12:06;;;;;;;0.73;0.73;;;;;;;4.81;100.00;101319.75;5066648;28;20025;-66
2023/12/16 05:14:31;;;;;;;0.45;0.45;;;;;;;4.77;100.00;101316.22;5048332;28;20055;-67
2023/12/16 05:16:56;;;;;;;3.90;1.83;;;;;;;4.70;100.00;101315.16;5066531;28;20045;-66
2023/12/16 05:19:21;;;;;;;4.60;1.98;;;;;;;4.77;100.00;101317.91;5066370;28;20029;-67
2023/12/16 05:21:47;;;;;;;7.85;0.98;;;;;;;4.73;100.00;101309.22;5066475;28;20029;-68
2023/12/16 05:24:12;;;;;;;4.03;1.33;;;;;;;4.70;100.00;101320.28;5066458;28;20076;-67
2023/12/16 05:26:38;;;;;;;3.38;1.33;;;;;;;4.66;100.00;101313.31;5066466;28;20024;-67
2023/12/16 05:29:03;;;;;;;4.40;1.67;;;;;;;4.65;100.00;101321.00;5066319;28;20512;-67
2023/12/16 05:31:29;;;;;;;0.80;0.80;;;;;;;4.56;100.00;101324.13;5048322;28;20079;-67
2023/12/16 05:33:54;;;;;;;0.95;0.93;;;;;;;4.58;100.00;101325.91;5048234;28;20084;-66
2023/12/16 05:36:19;;;;;;;1.05;0.70;;;;;;;4.59;100.00;101331.94;5066301;28;20349;-66
2023/12/16 05:38:45;;;;;;;6.25;1.08;;;;;;;4.63;100.00;101328.66;5066061;28;20025;-66
2023/12/16 05:41:13;;;;;;;1.77;1.60;;;;;;;4.62;100.00;101337.19;5047488;28;20025;-67
2023/12/16 05:43:39;;;;;;;1.05;1.05;;;;;;;4.58;100.00;101330.22;5065906;28;20025;-66
2023/12/16 05:46:04;;;;;;;0.52;0.52;;;;;;;4.56;100.00;101331.84;5066172;28;20025;-66
2023/12/16 05:48:31;;;;;;;4.43;1.80;;;;;;;4.55;100.00;101332.69;5066121;28;20045;-67
2023/12/16 05:50:56;;;;;;;3.60;1.05;;;;;;;4.56;100.00;101321.56;5065857;28;20032;-67
2023/12/16 05:53:22;;;;;;;2.05;1.63;;;;;;;4.53;100.00;101337.78;5065790;28;20028;-67
2023/12/16 05:55:47;;;;;;;1.40;0.95;;;;;;;4.41;100.00;101312.53;5065804;28;20029;-67
2023/12/16 05:58:13;;;;;;;0.57;0.57;;;;;;;4.49;100.00;101317.91;5065858;28;20017;-67
2023/12/16 06:00:38;;;;;;;1.17;1.08;;;;;;;4.47;100.00;101317.03;5065698;28;20052;-66
2023/12/16 06:03:04;;;;;;;0.65;0.65;;;;;;;4.41;100.00;101312.53;5065579;28;20051;-67
2023/12/16 06:05:30;;;;;;;0.40;0.40;;;;;;;4.42;100.00;101298.00;5048028;28;20012;-66
2023/12/16 06:07:55;;;;;;;0.60;0.60;;;;;;;4.47;100.00;101312.72;5047790;28;20028;-66
2023/12/16 06:10:20;;;;;;;0.45;0.45;;;;;;;4.45;100.00;101308.38;5065631;28;20021;-66
2023/12/16 06:12:46;;;;;;;11.50;3.03;;;;;;;4.52;100.00;101310.31;5065473;28;20025;-66
2023/12/16 06:15:11;;;;;;;2.40;1.77;;;;;;;4.47;100.00;101301.59;5065162;28;20033;-66
2023/12/16 06:17:36;;;;;;;3.42;0.88;;;;;;;4.56;100.00;101306.13;5065500;28;20020;-67
2023/12/16 06:20:04;;;;;;;4.60;1.17;;;;;;;4.52;100.00;101296.59;5065260;28;20044;-67
2023/12/16 06:22:30;;;;;;;0.60;0.60;;;;;;;4.56;100.00;101299.31;5065398;28;20020;-67
2023/12/16 06:24:57;;;;;;;8.52;1.65;;;;;;;4.61;100.00;101302.00;5047318;28;20504;-67
2023/12/16 06:27:23;;;;;;;0.70;0.70;;;;;;;4.54;100.00;101276.91;5065380;28;20021;-67
2023/12/16 06:29:48;;;;;;;0.90;0.90;;;;;;;4.65;100.00;101305.56;5065057;28;20100;-67
2023/12/16 06:32:16;;;;;;;0.95;0.60;;;;;;;4.67;100.00;101299.63;5047090;28;20123;-65
2023/12/16 06:34:42;;;;;;;7.30;1.88;;;;;;;4.70;100.00;101306.56;5047211;28;20043;-66
2023/12/16 06:37:07;;;;;;;0.95;0.95;;;;;;;4.76;100.00;101298.16;5046898;28;20024;-67
2023/12/16 06:39:33;;;;;;;2.80;1.77;;;;;;;4.75;100.00;101301.53;5046959;28;20052;-65
2023/12/16 06:41:58;;;;;;;15.43;1.48;;;;;;;4.85;100.00;101311.31;5064948;28;20103;-67
2023/12/16 06:44:24;;;;;;;2.67;2.05;;;;;;;4.83;100.00;101294.94;5064784;28;20048;-66
2023/12/16 06:46:49;;;;;;;5.55;1.95;;;;;;;4.86;100.00;101300.16;5064918;28;20024;-66
2023/12/16 06:49:18;;;;;;;4.13;1.80;;;;;;;4.95;100.00;101303.00;5046373;28;20500;-66
2023/12/16 06:51:43;;;;;;;4.28;2.13;;;;;;;5.00;100.00;101292.84;5065051;28;20021;-67
2023/12/16 06:54:08;;;;;;;15.73;2.58;;;;;;;4.99;100.00;101290.22;5047070;28;20033;-66
2023/12/16 06:56:34;;;;;;;0.93;0.85;;;;;;;4.99;100.00;101282.50;5046887;28;20021;-66
2023/12/16 06:58:59;;;;;;;10.75;2.60;;;;;;;5.00;100.00;101287.69;5046804;28;20466;-66
2023/12/16 07:01:25;;;;;;;1.13;1.08;;;;;;;5.10;100.00;101306.88;5064771;28;20025;-67
2023/12/16 07:03:50;;;;;;;2.40;1.63;;;;;;;5.07;100.00;101291.34;5046707;28;20147;-68
2023/12/16 07:06:19;;;;;;;1.00;0.68;;;;;;;5.09;100.00;101289.69;5046498;28;20093;-67
2023/12/16 07:08:45;;;;;;;8.98;1.40;;;;;;;5.11;100.00;101300.91;5064711;28;20021;-66
2023/12/16 07:11:12;;;;;;;1.80;1.42;;;;;;;5.11;100.00;101298.34;5064502;28;20120;-67
2023/12/16 07:13:38;;;;;;;1.30;1.20;;;;;;;5.10;100.00;101294.00;5046360;28;20028;-67
2023/12/16 07:16:04;;;;;;;2.15;1.95;;;;;;;5.14;100.00;101298.41;5064524;28;20064;-66
2023/12/16 07:18:29;;;;;;;0.93;0.93;;;;;;;5.14;100.00;101292.38;5064319;28;20033;-66
2023/12/16 07:20:57;;;;;;;2.67;1.92;;;;;;;5.08;100.00;101275.03;5064549;28;20035;-67
2023/12/16 07:23:23;;;;;;;13.55;2.53;;;;;;;5.17;100.00;101288.22;5064448;28;20025;-68
2023/12/16 07:25:50;;;;;;;1.30;0.95;;;;;;;5.13;100.00;101278.63;5046507;28;20021;-66
2023/12/16 07:28:15;;;;;;;5.40;1.08;;;;;;;5.20;100.00;101285.72;5064696;28;20036;-67
2023/12/16 07:30:41;;;;;;;1.02;1.02;;;;;;;5.16;100.00;101270.16;5046166;28;20025;-68
2023/12/16 07:33:07;;;;;;;0.98;0.88;;;;;;;5.20;100.00;101280.56;5064366;28;20436;-67
2023/12/16 07:35:34;;;;;;;2.65;1.73;;;;;;;5.24;100.00;101285.81;5064474;28;20045;-67
2023/12/16 07:37:59;;;;;;;4.80;0.70;;;;;;;5.21;100.00;101287.44;5064225;28;20501;-68
2023/12/16 07:40:25;;;;;;;0.70;0.70;;;;;;;5.16;100.00;101291.59;5064368;28;20025;-67
2023/12/16 07:42:51;;;;;;;10.10;1.40;;;;;;;5.14;100.00;101290.69;5064356;28;20021;-67
2023/12/16 07:45:16;;;;;;;0.77;0.77;;;;;;;5.12;100.00;101292.34;5064191;28;20108;-67
2023/12/16 07:47:42;;;;;;;0.98;0.98;;;;;;;5.01;100.00;101292.03;5064157;28;20032;-67
2023/12/16 07:50:08;;;;;;;1.00;0.70;;;;;;;4.99;100.00;101287.66;5046065;28;20021;-68
2023/12/16 07:52:33;;;;;;;2.60;2.05;;;;;;;4.94;100.00;101302.97;5064041;28;20016;-67
2023/12/16 07:54:58;;;;;;;0.73;0.73;;;;;;;4.91;100.00;101296.03;5064129;28;20087;-66
2023/12/16 07:57:24;;;;;;;2.72;0.93;;;;;;;4.88;100.00;101288.22;5064075;28;20081;-66
2023/12/16 07:59:49;;;;;;;2.45;1.40;;;;;;;4.90;100.00;101296.00;5064040;28;20497;-67
2023/12/16 08:02:14;;;;;;;39.28;4.20;;;;;;;4.85;100.00;101288.16;5046042;28;20035;-66
2023/12/16 08:04:40;;;;;;;6.85;1.10;;;;;;;4.91;100.00;101303.75;5067668;28;20028;-68
2023/12/16 08:07:05;;;;;;;1.15;1.05;;;;;;;4.89;100.00;101284.81;5049757;28;20111;-68
2023/12/16 08:09:32;;;;;;;2.63;1.80;;;;;;;4.91;100.00;101274.56;5049903;28;20040;-67
2023/12/16 08:12:00;;;;;;;8.95;1.13;;;;;;;4.92;100.00;101266.03;5067779;28;20029;-67
2023/12/16 08:14:26;;;;;;;0.43;0.43;;;;;;;5.01;100.00;101273.16;5067595;28;20045;-68
2023/12/16 08:16:51;;;;;;;0.40;0.40;;;;;;;5.02;100.00;101274.88;5067893;28;20100;-67
2023/12/16 08:19:17;;;;;;;0.68;0.68;;;;;;;5.12;100.00;101283.75;5049492;28;20029;-69
2023/12/16 08:21:42;;;;;;;3.08;2.00;;;;;;;5.23;100.00;101272.03;5067533;28;20176;-71
2023/12/16 08:24:08;;;;;;;1.27;1.20;;;;;;;5.29;100.00;101269.63;5067433;28;20105;-73
2023/12/16 08:26:33;;;;;;;9.73;2.58;;;;;;;5.40;100.00;101267.34;5067469;28;20024;-73
2023/12/16 08:28:58;;;;;;;0.55;0.55;;;;;;;5.48;100.00;101269.28;5049286;28;20021;-72
2023/12/16 08:31:24;;;;;;;2.70;1.85;;;;;;;5.56;100.00;101278.06;5066938;28;20021;-72
2023/12/16 08:33:49;;;;;;;4.90;1.45;;;;;;;5.61;100.00;101271.31;5067193;28;20052;-72
2023/12/16 08:36:15;;;;;;;1.35;1.13;;;;;;;5.68;100.00;101275.81;5049279;28;20041;-72
2023/12/16 08:38:40;;;;;;;1.15;0.93;;;;;;;5.76;100.00;101283.75;5067196;28;20044;-72
2023/12/16 08:41:08;;;;;;;1.35;1.10;;;;;;;5.73;100.00;101262.19;5049140;28;20053;-72
2023/12/16 08:43:34;;;;;;;1.38;1.17;;;;;;;5.86;100.00;101287.44;5049179;28;20029;-72
2023/12/16 08:45:59;;;;;;;23.80;2.03;;;;;;;5.81;100.00;101279.56;5048993;28;20090;-72
2023/12/16 08:48:26;;;;;;;18.70;2.05;;;;;;;5.79;100.00;101281.25;5049046;28;20025;-70
2023/12/16 08:50:51;;;;;;;9.82;2.35;;;;;;;5.74;100.00;101272.53;5067112;28;20032;-71
2023/12/16 08:53:16;;;;;;;30.60;2.60;;;;;;;5.70;100.00;101266.41;5048807;28;20025;-71
2023/12/16 08:55:42;;;;;;;0.60;0.60;;;;;;;5.60;100.00;101255.84;5066815;28;20029;-71
2023/12/16 08:58:08;;;;;;;57.28;2.33;;;;;;;5.53;100.00;101263.41;5049224;28;20025;-72
2023/12/16 09:00:34;;;;;;;2.10;1.20;;;;;;;5.50;100.00;101263.31;5066779;28;20048;-71
2023/12/16 09:02:59;;;;;;;17.13;1.55;;;;;;;5.56;100.00;101270.31;5066608;28;20029;-72
2023/12/16 09:05:26;;;;;;;1.58;1.48;;;;;;;5.52;100.00;101265.94;5066755;28;20021;-72
2023/12/16 09:07:52;;;;;;;1.83;1.50;;;;;;;5.55;100.00;101272.06;5066400;28;20016;-70
2023/12/16 09:10:17;;;;;;;4.78;1.60;;;;;;;5.51;100.00;101269.34;5066686;28;20040;-71
2023/12/16 09:12:43;;;;;;;11.48;2.20;;;;;;;5.58;100.00;101266.09;5048440;28;20050;-71
2023/12/16 09:15:08;;;;;;;3.10;1.80;;;;;;;5.66;100.00;101272.31;5065188;28;20060;-72
2023/12/16 09:17:35;;;;;;;15.05;2.10;;;;;;;5.69;100.00;101271.53;5048965;28;20049;-73
2023/12/16 09:20:00;;;;;;;3.15;2.67;;;;;;;5.67;100.00;101261.19;5048616;28;20098;-73
2023/12/16 09:22:26;;;;;;;2.78;2.50;;;;;;;5.68;100.00;101264.63;5066185;28;20025;-72
2023/12/16 09:24:51;;;;;;;1.08;0.90;;;;;;;5.84;100.00;101278.78;5066505;28;20021;-73
2023/12/16 09:27:17;;;;;;;2.80;1.35;;;;;;;5.85;100.00;101265.06;5066216;28;20043;-73
2023/12/16 09:29:45;;;;;;;6.03;1.20;;;;;;;5.90;100.00;101260.00;5066451;28;20108;-73
2023/12/16 09:32:10;;;;;;;9.15;2.15;;;;;;;5.94;100.00;101249.81;5066377;28;20084;-73
2023/12/16 09:34:36;;;;;;;3.75;1.52;;;;;;;5.99;100.00;101261.97;5047838;28;20021;-72
2023/12/16 09:37:01;;;;;;;2.10;1.40;;;;;;;6.07;100.00;101275.94;5066399;28;20025;-70
2023/12/16 09:39:26;;;;;;;1.35;1.10;;;;;;;6.03;100.00;101263.78;5066018;28;20099;-71
2023/12/16 09:41:56;;;;;;;1.95;1.67;;;;;;;6.05;100.00;101264.72;5065866;28;20036;-72
2023/12/16 09:44:23;;;;;;;2.85;2.15;;;;;;;6.02;100.00;101251.72;5047844;28;20017;-74
2023/12/16 09:46:50;;;;;;;4.25;1.65;;;;;;;6.01;100.00;101257.69;5048069;28;20029;-73
2023/12/16 09:49:15;;;;;;;0.75;0.63;;;;;;;6.05;100.00;101262.16;5047980;28;20470;-73
2023/12/16 09:51:42;;;;;;;19.13;2.40;;;;;;;6.08;100.00;101251.91;5047877;28;20033;-73
2023/12/16 09:54:08;;;;;;;1.33;1.23;;;;;;;6.11;100.00;101245.94;5065873;28;20123;-74
2023/12/16 09:56:33;;;;;;;2.92;1.48;;;;;;;6.17;100.00;101261.56;5065888;28;20516;-74
2023/12/16 09:59:00;;;;;;;12.80;1.10;;;;;;;6.15;100.00;101253.78;5065655;28;20028;-74
2023/12/16 10:01:25;;;;;;;1.55;1.45;;;;;;;6.11;100.00;101245.94;5047975;28;20009;-75
2023/12/16 10:03:52;;;;;;;4.47;2.55;;;;;;;6.12;100.00;101261.44;5065536;28;20356;-73
2023/12/16 10:06:17;;;;;;;2.20;1.50;;;;;;;6.06;100.00;101253.56;5048420;28;20044;-75
2023/12/16 10:08:43;;;;;;;5.10;2.65;;;;;;;6.13;100.00;101255.47;5047599;28;20496;-74
2023/12/16 10:11:08;;;;;;;2.83;2.45;;;;;;;6.15;100.00;101261.50;5065651;28;20052;-74
2023/12/16 10:13:55;;;;;;;1.00;0.90;;;;;;;6.13;100.00;101263.22;5047574;28;20042;-73
2023/12/16 10:16:26;;;;;;;2.10;1.73;;;;;;;6.12;100.00;101251.13;5065293;28;20049;-74
2023/12/16 10:18:55;;;;;;;2.25;1.92;;;;;;;6.22;100.00;101254.81;5047714;28;20032;-75
2023/12/16 10:21:23;;;;;;;2.78;0.95;;;;;;;6.23;100.00;101245.38;5047840;28;20048;-75
2023/12/16 10:23:49;;;;;;;1.83;1.73;;;;;;;6.24;100.00;101242.81;5047851;28;20112;-76
2023/12/16 10:26:14;;;;;;;2.13;1.92;;;;;;;6.35;100.00;101249.91;5065176;28;20040;-75
2023/12/16 10:28:40;;;;;;;2.83;1.73;;;;;;;6.38;100.00;101239.66;5065290;28;20036;-74
2023/12/16 10:31:05;;;;;;;0.95;0.88;;;;;;;6.48;100.00;101227.84;5047464;28;20025;-74
2023/12/16 10:33:34;;;;;;;6.05;2.58;;;;;;;6.58;100.00;101247.88;5047115;28;20031;-77
2023/12/16 10:35:59;;;;;;;2.67;2.47;;;;;;;6.59;100.00;101246.13;5064983;28;20044;-73
2023/12/16 10:38:27;;;;;;;0.57;0.57;;;;;;;6.57;100.00;101230.63;5047026;28;20093;-76
2023/12/16 10:40:53;;;;;;;3.45;1.63;;;;;;;6.62;100.00;101228.16;5065003;28;20465;-77
2023/12/16 10:43:18;;;;;;;6.18;3.22;;;;;;;6.57;100.00;101221.19;5046978;28;20338;-75
2023/12/16 10:45:45;;;;;;;0.80;0.80;;;;;;;6.62;100.00;101221.28;5065106;28;20017;-76
2023/12/16 10:48:15;;;;;;;6.30;2.25;;;;;;;6.63;100.00;101212.69;5047115;28;20025;-77
2023/12/16 10:50:44;;;;;;;1.40;1.33;;;;;;;6.59;100.00;101195.41;5064934;28;20043;-80
2023/12/16 10:53:18;;;;;;;3.42;1.88;;;;;;;6.67;100.00;101193.00;5046903;28;20036;-85
2023/12/16 10:55:45;;;;;;;2.75;1.92;;;;;;;6.68;100.00;101198.19;5064769;28;20040;-79
2023/12/16 10:58:18;;;;;;;6.85;3.00;;;;;;;6.69;100.00;101188.75;5046649;28;20108;-71
2023/12/16 11:00:47;;;;;;;3.38;2.22;;;;;;;6.66;100.00;101184.38;5046400;28;20493;-78
2023/12/16 11:03:23;;;;;;;3.10;1.95;;;;;;;6.68;100.00;101174.97;5064663;28;20048;-76
2023/12/16 11:05:59;;;;;;;2.90;1.67;;;;;;;6.66;100.00;101181.78;5064850;28;20077;-79
2023/12/16 11:08:27;;;;;;;0.70;0.70;;;;;;;6.68;100.00;101174.97;5064539;28;20051;-80
2023/12/16 11:10:54;;;;;;;3.30;2.67;;;;;;;6.60;100.00;101157.59;5046665;28;20124;-79
2023/12/16 11:13:21;;;;;;;6.80;1.88;;;;;;;6.53;100.00;101159.19;5046297;28;20032;-79
2023/12/16 11:15:51;;;;;;;3.63;1.50;;;;;;;6.54;100.00;101158.31;5064324;28;20059;-76
2023/12/16 11:18:21;;;;;;;0.50;0.50;;;;;;;6.55;100.00;101158.34;5064984;28;20528;-77